Chihuahua Valley (212) Station Data

Red Flag Warning: No
Fire Weather Zone: 258
SDGE Region: Ramona
Lat/Lon: 33.387/-116.661

Observations

Time Wind Speed/Gust Temp(F) RH Fuel Moist Fuel Temp(F) Dewpt(F) Tmax(F) Tmin(F) Accum Precip 10-min Precip SL Press(mb)
3/29 8:00am 23 16 G 31 59° 18% - - 16° 59.1° 55.7° - - 1016.0
3/29 7:50am 25 15 G 25 58° 19% - - 16° 58.6° 55.7° - - 1016.0
3/29 7:40am 25 17 G 24 57° 20% - - 16° 57.8° 55.7° - - 1016.0
3/29 7:30am 25 15 G 25 57° 20% - - 16° 57.7° 55.7° - - 1016.0
3/29 7:20am 21 16 G 26 57° 20% - - 16° 57.7° 55.7° - - 1016.0
3/29 7:10am 19 15 G 22 57° 20% - - 16° 57.7° 55.7° - - 1016.0
3/29 7:00am 13 13 G 23 57° 20% - - 16° 57.7° 55.7° - - 1017.0
3/29 6:50am 16 14 G 25 57° 19% - - 15° 57.7° 55.7° - - 1016.0
3/29 6:40am 19 14 G 20 57° 20% - - 16° 57.7° 55.7° - - 1016.0
3/29 6:30am 18 13 G 21 57° 20% - - 16° 57.7° 55.7° - - 1016.0
3/29 6:20am 20 14 G 26 57° 19% - - 15° 57.7° 55.7° - - 1016.0
3/29 6:10am 20 15 G 23 57° 19% - - 16° 57.7° 55.7° - - 1016.0
3/29 6:00am 14 18 G 28 57° 21% - - 17° 57.6° 55.7° - - 1016.0
3/29 5:50am 28 17 G 27 56° 21% - - 17° 57.6° 55.7° - - 1016.0
3/29 5:40am 32 17 G 27 56° 22% - - 17° 57.6° 55.7° - - 1016.0
3/29 5:30am 33 18 G 28 56° 21% - - 17° 57.6° 56° - - 1016.0
3/29 5:20am 33 20 G 29 56° 21% - - 17° 57.6° 56.1° - - 1015.0
3/29 5:10am 34 22 G 34 57° 20% - - 16° 57.6° 56.1° - - 1015.0
3/29 5:00am 31 22 G 33 57° 20% - - 16° 57.6° 56.1° - - 1015.0
3/29 4:50am 28 23 G 39 57° 19% - - 16° 57.6° 56.1° - - 1015.0
3/29 4:40am 18 21 G 34 57° 19% - - 16° 57.6° 56.1° - - 1015.0
3/29 4:30am 18 20 G 32 57° 19% - - 15° 57.6° 56.1° - - 1015.0
3/29 4:20am 13 19 G 35 57° 19% - - 15° 57.6° 56.1° - - 1015.0
3/29 4:10am 24 18 G 31 57° 19% - - 14° 57.6° 56.1° - - 1016.0
3/29 4:00am 19 19 G 33 57° 18% - - 14° 57.6° 56.1° - - 1015.0
3/29 3:50am 12 19 G 32 57° 18% - - 14° 57.6° 56.1° - - 1015.0
3/29 3:40am 21 19 G 31 57° 18% - - 14° 57.6° 56.1° - - 1015.0
3/29 3:30am 17 19 G 30 57° 17% - - 13° 57.6° 56.1° - - 1015.0
3/29 3:20am 13 21 G 33 57° 17% - - 13° 57.6° 56.1° - - 1015.0
3/29 3:10am 17 19 G 30 57° 17% - - 12° 57.6° 56.1° - - 1015.0
3/29 3:00am 18 18 G 34 57° 16% - - 12° 57.6° 56.1° - - 1015.0
3/29 2:50am 12 18 G 29 57° 16% - - 12° 57.6° 56.1° - - 1015.0
3/29 2:40am 9 17 G 30 57° 16% - - 12° 57.5° 56.1° - - 1015.0
3/29 2:30am 16 20 G 32 57° 16% - - 12° 57.5° 56.1° - - 1015.0
3/29 2:20am 20 20 G 33 57° 16% - - 12° 57.5° 56.1° - - 1015.0
3/29 2:10am 24 19 G 32 57° 17% - - 12° 57.5° 56.1° - - 1015.0
3/29 2:00am 23 21 G 34 57° 16% - - 12° 57.5° 56.1° - - 1015.0
3/29 1:50am 25 18 G 30 57° 17% - - 12° 57.5° 56.1° - - 1016.0
3/29 1:40am 19 17 G 28 57° 16% - - 12° 57.5° 56.1° - - 1016.0
3/29 1:30am 24 17 G 28 57° 16% - - 11° 57.5° 56.1° - - 1016.0
3/29 1:20am 22 18 G 27 57° 16% - - 11° 57.5° 56.1° - - 1016.0
3/29 1:10am 30 19 G 31 57° 16% - - 11° 57.5° 56.1° - - 1016.0
3/29 1:00am 27 20 G 32 57° 15% - - 10° 57.5° 56.1° - - 1015.0
3/29 12:50am 24 22 G 34 57° 15% - - 10° 57.5° 56.1° - - 1015.0
3/29 12:40am 24 20 G 34 57° 15% - - 10° 57.2° 56.1° - - 1016.0
3/29 12:30am 23 19 G 34 57° 15% - - 57° 56.1° - - 1016.0
3/29 12:20am 25 17 G 32 57° 15% - - 56.9° 56.1° - - 1016.0
3/29 12:10am 24 15 G 28 56° 15% - - 56.9° 56.1° - - 1016.0
3/29 12:00am 25 14 G 25 56° 15% - - 67° 36.9° - - 1016.0
3/28 11:50pm 4 7 G 17 56° 15% - - 67° 36.9° - - 1017.0
3/28 11:40pm 337 9 G 18 56° 15% - - 67° 36.9° - - 1017.0
3/28 11:30pm 352 8 G 16 56° 14% - - 67° 36.9° - - 1017.0
3/28 11:20pm 10 10 G 21 56° 14% - - 67° 36.9° - - 1017.0
3/28 11:10pm 24 12 G 21 56° 14% - - 67° 36.9° - - 1017.0
3/28 11:00pm 32 7 G 21 54° 15% - - 67° 36.9° - - 1017.0
3/28 10:50pm 23 6 G 10 54° 16% - - 67° 36.9° - - 1018.0
3/28 10:40pm 356 7 G 14 53° 17% - - 67° 36.9° - - 1017.0
3/28 10:30pm 359 8 G 15 53° 17% - - 10° 67° 36.9° - - 1017.0
3/28 10:20pm 10 6 G 11 53° 18% - - 11° 67° 36.9° - - 1018.0
3/28 10:10pm 359 6 G 9 53° 18% - - 11° 67° 36.9° - - 1018.0
3/28 10:00pm 16 7 G 12 54° 17% - - 10° 67° 36.9° - - 1017.0
3/28 9:50pm 27 7 G 12 53° 18% - - 11° 67° 36.9° - - 1017.0
3/28 9:40pm 28 7 G 12 53° 18% - - 11° 67° 36.9° - - 1017.0
3/28 9:30pm 27 6 G 14 53° 21% - - 14° 67° 36.9° - - 1017.0
3/28 9:20pm 18 3 G 6 52° 28% - - 19° 67° 36.9° - - 1018.0
3/28 9:10pm 8 3 G 5 52° 29% - - 21° 67° 36.9° - - 1017.0
3/28 9:00pm 31 5 G 7 51° 31% - - 22° 67° 36.9° - - 1018.0
3/28 8:50pm 34 5 G 7 51° 35% - - 24° 67° 36.9° - - 1017.0
3/28 8:40pm 36 5 G 7 50° 37% - - 25° 67° 36.9° - - 1018.0
3/28 8:30pm 36 4 G 5 51° 36% - - 25° 67° 36.9° - - 1017.0
3/28 8:20pm 3 4 G 6 51° 37% - - 25° 67° 36.9° - - 1017.0
3/28 8:10pm 17 2 G 3 51° 36% - - 26° 67° 36.9° - - 1017.0
3/28 8:00pm 14 2 G 5 52° 36% - - 26° 67° 36.9° - - 1017.0
3/28 7:50pm 80 1 G 3 52° 34% - - 25° 67° 36.9° - - 1016.0
3/28 7:40pm 73 1 G 4 53° 33% - - 24° 67° 36.9° - - 1016.0
3/28 7:30pm 10 1 G 3 54° 31% - - 24° 67° 36.9° - - 1016.0
3/28 7:20pm 338 3 G 5 55° 31% - - 25° 67° 36.9° - - 1015.0
3/28 7:10pm 325 3 G 7 56° 31% - - 26° 67° 36.9° - - 1015.0
3/28 7:00pm 318 4 G 8 58° 29% - - 25° 67° 36.9° - - 1014.0
3/28 6:50pm 313 5 G 10 59° 26% - - 24° 67° 36.9° - - 1014.0
3/28 6:40pm 304 5 G 8 59° 24% - - 23° 67° 36.9° - - 1014.0
3/28 6:30pm 300 7 G 11 60° 24% - - 23° 67° 36.9° - - 1013.0
3/28 6:20pm 313 7 G 12 60° 24% - - 24° 67° 36.9° - - 1013.0
3/28 6:10pm 310 8 G 15 61° 25% - - 24° 67° 36.9° - - 1013.0
3/28 6:00pm 296 6 G 11 62° 25% - - 25° 67° 36.9° - - 1013.0
3/28 5:50pm 302 10 G 15 61° 25% - - 25° 67° 36.9° - - 1013.0
3/28 5:40pm 281 9 G 15 61° 25% - - 25° 67° 36.9° - - 1013.0
3/28 5:30pm 305 8 G 14 62° 24% - - 25° 67° 36.9° - - 1012.0
3/28 5:20pm 300 8 G 15 62° 24% - - 25° 67° 36.9° - - 1012.0
3/28 5:10pm 302 7 G 14 63° 23% - - 25° 67° 36.9° - - 1012.0
3/28 5:00pm 302 7 G 13 63° 22% - - 23° 67° 36.9° - - 1012.0
3/28 4:50pm 297 3 G 8 64° 21% - - 24° 67° 36.9° - - 1012.0
3/28 4:40pm 301 4 G 10 64° 21% - - 24° 67° 36.9° - - 1012.0
3/28 4:30pm 278 3 G 8 65° 20% - - 23° 67° 36.9° - - 1011.0
3/28 4:20pm 192 1 G 4 66° 12% - - 12° 67° 36.9° - - 1011.0
3/28 4:10pm 126 3 G 7 64° 13% - - 12° 64.9° 36.9° - - 1012.0
3/28 4:00pm 49 3 G 8 64° 13% - - 12° 64.8° 36.9° - - 1012.0
3/28 3:50pm 27 6 G 11 64° 13% - - 11° 64.8° 36.9° - - 1012.0
3/28 3:40pm 34 4 G 10 64° 13% - - 12° 64.8° 36.9° - - 1012.0
3/28 3:30pm 19 4 G 11 64° 13% - - 11° 64.7° 36.9° - - 1012.0
3/28 3:20pm 51 5 G 12 62° 13% - - 11° 63.3° 36.9° - - 1012.0
3/28 3:10pm 28 5 G 13 62° 13% - - 11° 63.2° 36.9° - - 1013.0
3/28 3:00pm 36 7 G 12 62° 13% - - 11° 63.1° 36.9° - - 1013.0
3/28 2:50pm 7 7 G 15 62° 13% - - 11° 63.1° 36.9° - - 1013.0
3/28 2:40pm 3 7 G 14 62° 13% - - 11° 63.1° 36.9° - - 1013.0
3/28 2:30pm 360 8 G 14 62° 13% - - 10° 63.1° 36.9° - - 1013.0
3/28 2:20pm 40 8 G 15 62° 13% - - 10° 63.1° 36.9° - - 1014.0
3/28 2:10pm 14 7 G 13 62° 13% - - 10° 63.1° 36.9° - - 1013.0
3/28 2:00pm 15 9 G 13 61° 13% - - 10° 63.1° 36.9° - - 1014.0
3/28 1:50pm 32 7 G 15 61° 13% - - 10° 63.1° 36.9° - - 1014.0
3/28 1:40pm 7 8 G 17 61° 13% - - 11° 63.1° 36.9° - - 1014.0
3/28 1:30pm 27 9 G 15 61° 13% - - 10° 61.5° 36.9° - - 1014.0
3/28 1:20pm 21 6 G 16 61° 13% - - 10° 61.5° 36.9° - - 1014.0
3/28 1:10pm 341 6 G 14 60° 13% - - 61.2° 36.9° - - 1014.0
3/28 1:00pm 8 8 G 21 60° 13% - - 61.2° 36.9° - - 1014.0
3/28 12:50pm 52 8 G 20 60° 13% - - 61.2° 36.9° - - 1015.0
3/28 12:40pm 31 7 G 15 59° 13% - - 60.6° 36.9° - - 1015.0
3/28 12:30pm 15 8 G 15 59° 13% - - 59.9° 36.9° - - 1015.0
3/28 12:20pm 16 9 G 16 58° 13% - - 59.8° 36.9° - - 1015.0
3/28 12:10pm 40 10 G 17 58° 14% - - 59.8° 36.9° - - 1015.0
3/28 12:00pm 52 12 G 22 58° 14% - - 59.8° 36.9° - - 1015.0
3/28 11:50am 61 7 G 14 58° 14% - - 58.9° 36.9° - - 1015.0
3/28 11:40am 28 9 G 16 58° 14% - - 58.9° 36.9° - - 1015.0
3/28 11:30am 25 11 G 19 57° 14% - - 58.2° 36.9° - - 1015.0
3/28 11:20am 27 11 G 23 57° 14% - - 57.8° 36.9° - - 1015.0
3/28 11:10am 24 12 G 20 57° 15% - - 10° 57.6° 36.9° - - 1016.0
3/28 11:00am 5 10 G 16 57° 16% - - 11° 57° 36.9° - - 1016.0
3/28 10:50am 24 10 G 16 56° 17% - - 11° 57° 36.9° - - 1016.0
3/28 10:40am 22 12 G 18 55° 18% - - 12° 55.7° 36.9° - - 1016.0
3/28 10:30am 29 11 G 18 55° 19% - - 13° 55.6° 36.9° - - 1016.0
3/28 10:20am 31 11 G 22 55° 19% - - 13° 55.1° 36.9° - - 1016.0
3/28 10:10am 26 12 G 20 54° 20% - - 13° 54.5° 36.9° - - 1016.0
3/28 10:00am 24 11 G 19 54° 20% - - 14° 54° 36.9° - - 1016.0
3/28 9:50am 31 12 G 21 53° 21% - - 14° 53° 36.9° - - 1016.0
3/28 9:40am 32 13 G 20 52° 21% - - 14° 52.6° 36.9° - - 1016.0
3/28 9:30am 27 13 G 21 52° 22% - - 14° 52° 36.9° - - 1016.0
3/28 9:20am 22 14 G 21 51° 22% - - 14° 51.4° 36.9° - - 1017.0
3/28 9:10am 28 14 G 23 51° 23% - - 14° 51.1° 36.9° - - 1017.0
3/28 9:00am 36 14 G 23 50° 24% - - 15° 50.4° 36.9° - - 1016.0
3/28 8:50am 32 15 G 24 50° 25% - - 15° 50° 36.9° - - 1017.0
3/28 8:40am 32 15 G 24 49° 25% - - 15° 49.7° 36.9° - - 1017.0
3/28 8:30am 31 15 G 27 49° 25% - - 15° 49.2° 36.9° - - 1017.0
3/28 8:20am 29 15 G 29 49° 25% - - 15° 49° 36.9° - - 1016.0
3/28 8:10am 30 16 G 25 48° 26% - - 15° 48.5° 36.9° - - 1016.0
3/28 8:00am 33 17 G 29 48° 26% - - 15° 47.9° 36.9° - - 1016.0
3/28 7:50am 31 17 G 27 47° 27% - - 15° 47.5° 36.9° - - 1016.0
3/28 7:40am 30 15 G 27 47° 27% - - 15° 47.5° 36.9° - - 1016.0
3/28 7:30am 32 14 G 25 47° 27% - - 15° 47.3° 36.9° - - 1016.0
3/28 7:20am 28 15 G 25 47° 28% - - 15° 47.3° 36.9° - - 1016.0
3/28 7:10am 26 14 G 25 46° 28% - - 15° 47.3° 36.9° - - 1016.0
3/28 7:00am 28 14 G 24 46° 28% - - 15° 47.3° 36.9° - - 1016.0
3/28 6:50am 26 13 G 21 46° 28% - - 15° 47.3° 36.9° - - 1016.0
3/28 6:40am 27 14 G 20 46° 28% - - 15° 47.3° 36.9° - - 1016.0
3/28 6:30am 28 15 G 25 46° 28% - - 15° 47.3° 36.9° - - 1016.0
3/28 6:20am 31 17 G 30 46° 28% - - 15° 47.3° 36.9° - - 1016.0
3/28 6:10am 31 17 G 34 46° 28% - - 15° 47.3° 36.9° - - 1016.0
3/28 6:00am 31 17 G 28 46° 28% - - 15° 47.3° 36.9° - - 1016.0